Time;durP1;ratioP1;P1;durP2;ratioP2;P2;SDS_P1;SDS_P2;PMS_P1;PMS_P2;Temp;Humidity;BMP_temperature;BMP_pressure;BME280_temperature;BME280_humidity;BME280_pressure;Samples;Min_cycle;Max_cycle;Signal;HPM_P1;HPM_P2
2021/04/20 00:02:27;;;;;;;42.47;27.97;;;;;;;6.97;83.03;98537.94;239065;1195;23202;-75
2021/04/20 00:07:31;;;;;;;44.10;27.05;;;;;;;6.94;83.38;98525.17;239427;1196;23121;-74
2021/04/20 00:12:33;;;;;;;41.25;26.75;;;;;;;6.90;83.08;98528.62;239431;1199;23127;-75
2021/04/20 00:17:37;;;;;;;40.43;26.37;;;;;;;6.80;83.75;98524.11;239388;1196;23567;-75
2021/04/20 00:22:40;;;;;;;42.90;26.80;;;;;;;6.70;83.47;98524.93;239196;1196;23254;-74
2021/04/20 00:27:43;;;;;;;42.77;25.63;;;;;;;6.63;83.43;98524.41;239253;1196;23122;-74
2021/04/20 00:32:47;;;;;;;35.00;23.70;;;;;;;6.59;83.40;98523.34;239445;1196;23116;-75
2021/04/20 00:37:49;;;;;;;37.77;25.27;;;;;;;6.57;82.90;98515.64;239525;1199;25650;-76
2021/04/20 00:42:54;;;;;;;36.70;25.07;;;;;;;6.51;82.91;98519.38;239267;1199;23132;-75
2021/04/20 00:47:58;;;;;;;41.15;26.95;;;;;;;6.40;83.22;98507.16;239352;1199;23118;-74
2021/04/20 00:53:01;;;;;;;42.17;26.40;;;;;;;6.28;83.32;98502.91;239673;1199;23122;-75
2021/04/20 00:58:04;;;;;;;43.60;27.00;;;;;;;6.15;82.96;98506.86;239412;1199;23163;-74
2021/04/20 01:03:06;;;;;;;38.90;26.13;;;;;;;6.06;83.18;98505.00;239428;1196;23115;-75
2021/04/20 01:08:15;;;;;;;45.07;28.43;;;;;;;5.98;83.38;98498.36;239491;1196;23119;-74
2021/04/20 01:13:23;;;;;;;52.80;36.20;;;;;;;5.78;82.50;98499.90;239390;1196;26140;-75
2021/04/20 01:18:31;;;;;;;40.97;27.63;;;;;;;5.55;82.79;98503.03;239442;1199;23100;-74
2021/04/20 01:24:07;;;;;;;64.50;37.85;;;;;;;5.36;82.36;98505.35;239304;1196;24531;-75
2021/04/20 01:29:13;;;;;;;63.17;38.27;;;;;;;5.08;82.78;98507.39;239547;1196;23124;-74
2021/04/20 01:34:16;;;;;;;61.77;38.50;;;;;;;4.94;83.01;98505.19;239622;1196;28042;-75
2021/04/20 01:39:19;;;;;;;62.33;39.57;;;;;;;4.88;83.53;98497.45;239616;1196;26339;-74
2021/04/20 01:44:22;;;;;;;57.13;34.93;;;;;;;4.79;83.50;98497.14;239446;1196;23173;-74
2021/04/20 01:49:25;;;;;;;62.75;38.05;;;;;;;4.59;83.04;98505.79;239473;1199;23247;-74
2021/04/20 01:54:28;;;;;;;59.10;37.50;;;;;;;4.39;83.34;98512.55;239424;1196;23134;-74
2021/04/20 01:59:32;;;;;;;58.87;38.10;;;;;;;4.27;83.69;98507.41;239171;1196;23115;-74
2021/04/20 02:04:35;;;;;;;75.13;44.23;;;;;;;4.19;83.86;98504.42;239369;1196;23190;-75
2021/04/20 02:09:40;;;;;;;78.23;44.77;;;;;;;4.15;84.31;98506.77;239227;1199;23138;-74
2021/04/20 02:14:43;;;;;;;80.47;48.57;;;;;;;4.16;84.76;98507.59;239168;1199;27317;-76
2021/04/20 02:19:46;;;;;;;83.47;47.70;;;;;;;4.11;84.57;98506.48;239378;1199;23093;-76
2021/04/20 02:24:49;;;;;;;62.70;36.55;;;;;;;4.03;84.55;98503.48;239491;1196;23142;-75
2021/04/20 02:29:52;;;;;;;54.77;31.73;;;;;;;3.91;84.55;98501.79;239422;1199;23318;-73
2021/04/20 02:34:59;;;;;;;62.70;36.13;;;;;;;3.88;85.11;98504.16;239452;1199;23141;-75
2021/04/20 02:40:11;;;;;;;64.47;37.37;;;;;;;3.75;84.06;98513.31;239389;1196;23319;-75
2021/04/20 02:45:16;;;;;;;79.57;45.37;;;;;;;3.42;83.33;98509.77;238995;1199;23112;-74
2021/04/20 02:50:22;;;;;;;74.57;43.33;;;;;;;3.28;83.84;98513.86;239388;1199;23196;-74
2021/04/20 02:55:25;;;;;;;59.55;33.80;;;;;;;3.27;84.28;98509.59;239104;1199;23107;-75
2021/04/20 03:00:29;;;;;;;66.70;38.55;;;;;;;2.96;83.84;98506.58;239309;1196;23356;-75
2021/04/20 03:05:32;;;;;;;61.00;34.87;;;;;;;2.71;84.25;98500.70;239418;1195;26076;-75
2021/04/20 03:10:41;;;;;;;54.15;30.30;;;;;;;2.61;84.61;98499.75;239427;1196;23114;-74
2021/04/20 03:15:44;;;;;;;56.40;33.00;;;;;;;2.42;84.28;98496.55;239201;1196;23233;-74
2021/04/20 03:20:47;;;;;;;53.40;29.03;;;;;;;2.35;84.90;98502.00;239083;1196;26009;-73
2021/04/20 03:25:50;;;;;;;45.13;24.33;;;;;;;2.32;85.29;98505.13;239444;1196;23144;-75
2021/04/20 03:30:54;;;;;;;48.80;26.95;;;;;;;2.28;85.44;98510.11;239325;1196;25404;-74
2021/04/20 03:36:10;;;;;;;35.03;21.43;;;;;;;2.20;84.61;98510.50;239704;1196;23158;-74
2021/04/20 03:41:23;;;;;;;32.53;19.90;;;;;;;2.03;84.80;98510.50;239312;1196;23131;-74
2021/04/20 03:46:33;;;;;;;42.00;23.30;;;;;;;1.84;84.30;98512.54;239487;1198;23115;-74
2021/04/20 03:51:38;;;;;;;38.27;22.43;;;;;;;1.75;85.04;98500.75;239500;1196;23147;-75
2021/04/20 03:56:45;;;;;;;37.73;21.30;;;;;;;1.63;84.62;98503.45;239506;1196;23169;-74
2021/04/20 04:01:51;;;;;;;37.20;21.65;;;;;;;1.47;84.23;98499.70;239282;1196;23282;-75
2021/04/20 04:06:55;;;;;;;39.73;23.07;;;;;;;1.38;85.14;98507.20;239414;1197;23173;-74
2021/04/20 04:12:06;;;;;;;26.35;16.05;;;;;;;1.46;84.87;98506.05;239574;1196;23108;-74
2021/04/20 04:17:13;;;;;;;32.90;21.60;;;;;;;1.42;84.84;98505.70;239308;1196;23292;-75
2021/04/20 04:22:31;;;;;;;28.23;18.47;;;;;;;1.41;85.36;98522.57;239454;1196;23111;-75
2021/04/20 04:27:38;;;;;;;31.30;21.35;;;;;;;1.36;85.66;98525.92;239356;1194;25964;-75
2021/04/20 04:32:43;;;;;;;37.15;23.00;;;;;;;1.46;85.74;98529.81;239301;1196;23115;-74
2021/04/20 04:37:46;;;;;;;34.30;22.05;;;;;;;1.63;86.44;98535.14;239539;1196;26165;-75
2021/04/20 04:42:49;;;;;;;32.53;22.17;;;;;;;1.80;86.14;98522.77;239482;1196;23113;-75
2021/04/20 04:47:52;;;;;;;33.30;21.30;;;;;;;1.99;86.22;98528.66;239406;1199;24959;-75
2021/04/20 04:52:58;;;;;;;35.97;22.07;;;;;;;2.15;86.78;98536.84;239444;1196;23503;-75
2021/04/20 04:58:01;;;;;;;31.90;20.30;;;;;;;2.31;86.21;98532.59;239348;1196;23114;-75
2021/04/20 05:03:05;;;;;;;33.33;21.13;;;;;;;2.48;86.40;98536.05;240079;1199;23154;-74
2021/04/20 05:08:09;;;;;;;29.90;19.95;;;;;;;2.69;86.59;98529.22;239339;1196;23412;-75
2021/04/20 05:13:13;;;;;;;27.63;18.53;;;;;;;2.94;87.00;98524.52;239463;1199;26110;-74
2021/04/20 05:18:15;;;;;;;29.37;19.33;;;;;;;3.06;86.92;98531.33;239506;1196;23618;-74
2021/04/20 05:23:18;;;;;;;28.50;18.00;;;;;;;3.29;86.74;98539.27;239485;1196;23122;-76
2021/04/20 05:28:21;;;;;;;31.90;19.80;;;;;;;3.48;87.25;98534.47;239603;1195;23341;-74
2021/04/20 05:33:24;;;;;;;32.60;19.23;;;;;;;3.68;87.52;98541.83;240035;1196;23112;-74
2021/04/20 05:38:26;;;;;;;31.43;19.00;;;;;;;3.87;87.07;98540.44;240027;1196;23133;-75
2021/04/20 05:43:30;;;;;;;30.53;18.17;;;;;;;4.06;87.06;98535.59;240278;1196;23127;-76
2021/04/20 05:48:33;;;;;;;36.03;20.40;;;;;;;4.26;86.96;98534.17;239862;1196;23276;-77
2021/04/20 05:53:38;;;;;;;39.60;22.00;;;;;;;4.43;86.60;98544.66;243162;1195;23247;-79
2021/04/20 05:58:41;;;;;;;36.80;19.90;;;;;;;4.63;86.95;98542.16;240277;1195;23121;-78
2021/04/20 06:03:46;;;;;;;31.73;18.97;;;;;;;4.83;86.88;98542.53;240140;1196;24578;-76
2021/04/20 06:08:53;;;;;;;36.10;20.80;;;;;;;5.07;86.66;98543.74;239320;1195;23142;-77
2021/04/20 06:13:57;;;;;;;30.70;17.73;;;;;;;5.28;86.53;98536.67;239932;1196;24539;-77
2021/04/20 06:19:02;;;;;;;38.53;22.50;;;;;;;5.55;86.29;98532.26;239650;1196;23111;-77
2021/04/20 06:24:08;;;;;;;34.50;20.40;;;;;;;5.96;86.87;98535.82;239592;1196;23111;-77
2021/04/20 06:29:11;;;;;;;34.13;21.33;;;;;;;6.25;86.45;98540.65;239451;1196;26277;-77
2021/04/20 06:34:14;;;;;;;30.13;18.63;;;;;;;6.48;85.75;98539.34;239529;1199;23120;-76
2021/04/20 06:39:20;;;;;;;35.05;21.25;;;;;;;6.67;86.25;98549.43;239626;1196;23114;-78
2021/04/20 06:44:31;;;;;;;42.30;23.20;;;;;;;6.92;85.46;98545.92;239539;1199;24728;-76
2021/04/20 06:49:43;;;;;;;37.30;22.80;;;;;;;7.17;85.76;98541.61;239443;1196;23097;-77
2021/04/20 06:55:02;;;;;;;40.70;24.40;;;;;;;7.47;85.72;98548.70;239615;1196;23205;-76
2021/04/20 07:00:16;;;;;;;32.60;20.80;;;;;;;7.86;85.29;98549.83;239576;1196;26169;-76
2021/04/20 07:05:30;;;;;;;37.90;24.17;;;;;;;8.08;85.18;98553.98;241270;1196;23112;-75
2021/04/20 07:10:42;;;;;;;33.90;21.45;;;;;;;8.34;85.04;98562.61;239522;1196;23116;-76
2021/04/20 07:16:08;;;;;;;38.70;23.70;;;;;;;8.64;84.45;98550.90;239506;1199;23207;-74
2021/04/20 07:21:20;;;;;;;31.60;21.40;;;;;;;8.97;84.43;98556.48;239274;1196;23429;-73
2021/04/20 07:26:29;;;;;;;33.10;24.45;;;;;;;9.29;83.89;98551.59;239368;1199;23108;-74
2021/04/20 07:32:09;;;;;;;32.37;22.50;;;;;;;9.63;82.94;98550.66;239482;1196;23107;-73
2021/04/20 07:37:42;;;;;;;28.93;20.40;;;;;;;10.02;82.85;98547.71;239496;1196;23162;-74
2021/04/20 07:43:21;;;;;;;33.83;23.33;;;;;;;10.56;82.71;98544.77;239479;1196;23114;-74
2021/04/20 07:48:44;;;;;;;;;;;;;;;10.79;81.63;98559.13;239678;1196;23150;-76
2021/04/20 07:54:01;;;;;;;31.30;21.50;;;;;;;11.22;81.66;98555.38;239675;1196;23059;-75
2021/04/20 07:59:10;;;;;;;31.40;21.80;;;;;;;11.39;80.38;98549.45;239628;1196;23166;-76
2021/04/20 08:04:36;;;;;;;32.00;23.30;;;;;;;11.39;79.58;98550.23;239801;1196;23112;-76
2021/04/20 08:09:43;;;;;;;33.77;23.80;;;;;;;11.30;79.32;98554.69;239863;1199;23230;-76
2021/04/20 08:15:08;;;;;;;35.17;24.40;;;;;;;11.16;78.72;98537.81;239900;1197;23134;-77
2021/04/20 08:20:15;;;;;;;33.40;23.60;;;;;;;11.20;78.73;98533.45;239733;1196;23145;-76
2021/04/20 08:25:27;;;;;;;35.27;25.47;;;;;;;11.41;79.22;98536.52;239545;1196;23121;-76
2021/04/20 08:30:56;;;;;;;34.40;23.75;;;;;;;11.63;78.23;98533.90;240046;1196;23283;-76
2021/04/20 08:36:05;;;;;;;36.70;26.17;;;;;;;11.84;78.06;98536.15;239560;1196;23093;-76
2021/04/20 08:41:34;;;;;;;36.23;26.20;;;;;;;11.86;76.57;98527.80;239854;1196;26387;-76
2021/04/20 08:46:56;;;;;;;35.83;27.13;;;;;;;11.61;76.85;98538.78;240132;1196;23163;-76
2021/04/20 08:52:06;;;;;;;36.40;27.17;;;;;;;11.61;77.51;98538.78;240033;1196;23130;-77
2021/04/20 08:57:34;;;;;;;36.70;26.80;;;;;;;11.60;76.94;98539.09;239721;1196;26386;-76
2021/04/20 09:02:52;;;;;;;33.55;24.85;;;;;;;11.69;76.83;98531.91;240034;1196;24894;-76
2021/04/20 09:08:33;;;;;;;36.30;24.80;;;;;;;11.95;77.60;98536.75;239582;1196;23115;-76
2021/04/20 09:14:04;;;;;;;31.30;23.10;;;;;;;12.33;77.51;98523.77;239917;1196;23102;-77
2021/04/20 09:19:12;;;;;;;29.00;22.50;;;;;;;12.65;76.59;98523.81;240138;1196;23300;-77
2021/04/20 09:24:21;;;;;;;27.97;22.40;;;;;;;12.86;76.76;98518.70;239898;1195;23117;-77
2021/04/20 09:29:45;;;;;;;25.15;19.35;;;;;;;13.12;75.56;98515.30;240185;1196;24730;-79
2021/04/20 09:34:50;;;;;;;24.70;18.37;;;;;;;13.35;75.36;98511.45;239647;1197;23107;-75
2021/04/20 09:39:55;;;;;;;25.13;19.50;;;;;;;13.55;74.80;98508.50;239730;1196;23111;-75
2021/04/20 09:45:33;;;;;;;28.10;19.70;;;;;;;13.85;74.50;98509.45;243371;1196;23119;-76
2021/04/20 09:50:52;;;;;;;23.03;17.80;;;;;;;14.11;72.97;98497.91;239916;1196;23121;-78
2021/04/20 09:56:01;;;;;;;21.80;15.90;;;;;;;14.33;72.30;98496.93;240409;1194;23102;-75
2021/04/20 10:01:40;;;;;;;16.75;13.25;;;;;;;14.68;70.70;98494.18;240541;1196;27264;-77
2021/04/20 10:06:52;;;;;;;21.07;16.40;;;;;;;14.63;70.86;98492.43;240066;1197;23128;-76
2021/04/20 10:12:16;;;;;;;18.00;14.65;;;;;;;14.65;70.16;98486.74;240085;1195;23210;-76
2021/04/20 10:17:44;;;;;;;16.35;13.35;;;;;;;14.53;68.28;98476.59;239934;1199;23120;-75
2021/04/20 10:22:57;;;;;;;16.17;12.70;;;;;;;14.16;68.03;98484.28;240716;1196;23134;-75
2021/04/20 10:28:18;;;;;;;15.43;11.60;;;;;;;14.18;68.49;98480.14;239725;1196;23111;-75
2021/04/20 10:33:24;;;;;;;15.10;11.25;;;;;;;14.50;68.39;98474.54;239823;1199;23141;-77
2021/04/20 10:38:34;;;;;;;17.15;12.15;;;;;;;14.85;67.79;98461.75;239720;1196;23142;-74
2021/04/20 10:43:36;;;;;;;14.33;11.57;;;;;;;15.22;66.59;98458.54;239718;1199;23108;-75
2021/04/20 10:48:46;;;;;;;13.80;9.20;;;;;;;15.31;65.41;98453.11;239711;1197;23111;-75
2021/04/20 10:53:49;;;;;;;12.10;9.55;;;;;;;15.34;64.61;98455.93;239610;1196;23172;-75
2021/04/20 10:58:56;;;;;;;10.60;9.47;;;;;;;15.30;63.64;98456.92;239471;1196;23107;-76
2021/04/20 11:04:01;;;;;;;9.30;7.55;;;;;;;15.21;62.91;98444.27;239531;1196;23173;-76
2021/04/20 11:09:04;;;;;;;9.95;7.55;;;;;;;15.11;62.44;98450.05;239779;1199;23114;-75
2021/04/20 11:14:41;;;;;;;8.25;7.25;;;;;;;14.71;61.53;98445.00;240182;1196;23128;-76
2021/04/20 11:19:48;;;;;;;8.98;7.25;;;;;;;14.27;61.90;98445.13;241576;1196;23129;-74
2021/04/20 11:24:57;;;;;;;12.20;9.10;;;;;;;13.91;62.22;98443.59;240272;1196;23248;-76
2021/04/20 11:30:07;;;;;;;8.85;7.63;;;;;;;13.63;62.72;98448.51;239920;1195;23114;-77
2021/04/20 11:35:14;;;;;;;8.90;7.20;;;;;;;13.46;63.42;98446.60;239982;1196;25971;-75
2021/04/20 11:40:28;;;;;;;9.30;7.15;;;;;;;13.37;63.16;98443.09;240989;1196;23105;-76
2021/04/20 11:45:38;;;;;;;8.27;7.10;;;;;;;13.41;63.24;98439.45;240675;1196;23113;-76
2021/04/20 11:50:55;;;;;;;9.80;8.10;;;;;;;13.48;63.19;98431.70;240321;1196;23176;-76
2021/04/20 11:56:01;;;;;;;11.85;8.30;;;;;;;13.60;63.49;98431.09;240841;1196;23183;-76
2021/04/20 12:01:15;;;;;;;10.45;7.95;;;;;;;13.77;63.62;98424.91;239888;1196;23574;-76
2021/04/20 12:06:18;;;;;;;9.23;6.90;;;;;;;14.02;63.26;98422.52;241417;1199;23163;-76
2021/04/20 12:11:25;;;;;;;13.00;9.60;;;;;;;14.41;62.06;98412.59;239497;1196;23121;-76
2021/04/20 12:16:36;;;;;;;11.50;9.20;;;;;;;14.68;62.00;98410.61;239994;1196;25330;-77
2021/04/20 12:21:40;;;;;;;47.43;31.20;;;;;;;15.05;61.62;98408.18;239898;1199;23165;-74
2021/04/20 12:26:50;;;;;;;17.50;11.95;;;;;;;15.35;60.82;98400.84;239650;1196;23116;-74
2021/04/20 12:31:53;;;;;;;20.38;13.83;;;;;;;15.75;59.71;98396.86;240153;1196;24630;-73
2021/04/20 12:37:03;;;;;;;4.80;3.90;;;;;;;16.13;56.41;98395.09;239783;1196;23125;-74
2021/04/20 12:42:10;;;;;;;4.70;3.50;;;;;;;16.29;54.19;98389.86;240014;1196;23194;-75
2021/04/20 12:47:15;;;;;;;2.35;2.15;;;;;;;16.13;50.89;98395.09;239475;1196;23223;-75
2021/04/20 12:52:23;;;;;;;3.85;2.90;;;;;;;15.86;50.15;98391.88;239740;1196;23116;-75
2021/04/20 12:57:35;;;;;;;4.80;3.77;;;;;;;15.80;50.67;98385.89;239614;1196;23105;-75
2021/04/20 13:02:44;;;;;;;2.77;2.03;;;;;;;15.87;50.04;98383.44;239990;1196;23464;-75
2021/04/20 13:07:49;;;;;;;2.70;2.00;;;;;;;15.97;49.97;98367.94;239625;1196;23128;-75
2021/04/20 13:13:08;;;;;;;3.60;2.15;;;;;;;16.17;49.57;98358.98;239444;1196;26863;-75
2021/04/20 13:18:23;;;;;;;2.50;2.10;;;;;;;16.38;48.09;98361.59;239590;1196;23149;-73
2021/04/20 13:23:34;;;;;;;3.00;2.30;;;;;;;16.46;45.64;98357.20;239903;1196;26131;-75
2021/04/20 13:28:39;;;;;;;3.53;2.10;;;;;;;16.40;47.25;98355.85;240817;1196;27406;-74
2021/04/20 13:33:46;;;;;;;1.95;1.70;;;;;;;16.31;46.42;98352.45;239624;1196;23108;-73
2021/04/20 13:39:05;;;;;;;2.38;1.90;;;;;;;16.33;46.41;98342.89;241170;1196;23220;-75
2021/04/20 13:44:08;;;;;;;2.65;2.00;;;;;;;16.40;47.24;98345.81;239768;1196;23116;-73
2021/04/20 13:49:13;;;;;;;2.70;2.10;;;;;;;16.49;46.60;98347.63;239707;1196;27108;-72
2021/04/20 13:54:24;;;;;;;3.40;2.40;;;;;;;16.49;46.97;98344.92;239477;1196;23114;-75
2021/04/20 13:59:31;;;;;;;2.55;2.30;;;;;;;16.46;46.54;98342.90;240093;1196;23186;-78
2021/04/20 14:04:39;;;;;;;2.50;2.10;;;;;;;16.53;45.85;98352.02;240290;1196;23104;-78
2021/04/20 14:09:49;;;;;;;3.70;2.00;;;;;;;16.66;45.56;98327.67;240162;1196;23139;-77
2021/04/20 14:15:01;;;;;;;1.97;1.83;;;;;;;16.85;45.44;98335.22;240239;1195;23147;-78
2021/04/20 14:20:09;;;;;;;2.00;1.75;;;;;;;16.89;44.64;98336.14;239807;1198;25030;-78
2021/04/20 14:25:12;;;;;;;3.10;2.13;;;;;;;16.79;44.09;98340.07;239783;1196;23133;-79
2021/04/20 14:30:16;;;;;;;2.70;2.15;;;;;;;16.61;43.60;98326.00;239722;1196;23135;-78
2021/04/20 14:35:29;;;;;;;1.80;1.70;;;;;;;16.69;43.53;98335.91;239580;1194;23121;-78
2021/04/20 14:40:33;;;;;;;2.35;1.95;;;;;;;17.02;44.50;98331.48;239977;1196;23137;-79
2021/04/20 14:45:46;;;;;;;3.10;2.35;;;;;;;17.18;42.06;98326.94;239612;1196;23135;-78
2021/04/20 14:50:52;;;;;;;;;;;;;;;17.14;42.74;98326.05;239558;1197;23115;-78
2021/04/20 14:55:59;;;;;;;3.15;2.50;;;;;;;17.00;42.92;98328.32;239625;1196;21624;-78
2021/04/20 15:01:12;;;;;;;2.80;2.60;;;;;;;16.84;42.72;98330.92;239499;1196;23173;-77
2021/04/20 15:06:27;;;;;;;3.30;2.50;;;;;;;16.68;43.34;98336.25;239685;1196;23118;-78
2021/04/20 15:11:31;;;;;;;4.40;3.05;;;;;;;16.59;44.18;98336.34;239546;1196;23114;-79
2021/04/20 15:16:35;;;;;;;5.30;4.10;;;;;;;16.55;44.68;98338.95;239399;1196;23119;-77
2021/04/20 15:21:48;;;;;;;3.30;2.75;;;;;;;16.64;44.61;98332.65;239537;1196;23145;-78
2021/04/20 15:27:05;;;;;;;3.10;2.70;;;;;;;16.64;44.59;98332.65;239587;1199;23145;-78
2021/04/20 15:32:25;;;;;;;2.40;2.15;;;;;;;16.54;44.40;98331.97;239624;1195;27372;-78
2021/04/20 15:37:29;;;;;;;3.55;2.50;;;;;;;16.39;43.90;98338.83;239347;1196;23118;-77
2021/04/20 15:42:33;;;;;;;4.23;2.47;;;;;;;16.30;44.08;98340.06;239891;1196;23115;-78
2021/04/20 15:47:40;;;;;;;6.00;4.15;;;;;;;16.19;43.29;98340.51;239977;1196;23124;-78
2021/04/20 15:52:48;;;;;;;12.35;7.35;;;;;;;16.00;43.65;98337.55;239827;1196;23102;-77
2021/04/20 15:57:59;;;;;;;11.80;6.75;;;;;;;15.81;43.59;98335.36;239647;1196;26371;-78
2021/04/20 16:03:06;;;;;;;4.65;3.50;;;;;;;15.59;43.89;98336.52;239507;1199;23115;-77
2021/04/20 16:08:14;;;;;;;4.30;3.35;;;;;;;15.38;43.88;98335.41;239432;1196;23157;-78
2021/04/20 16:13:20;;;;;;;5.30;3.60;;;;;;;15.33;44.33;98332.13;239705;1196;23242;-78
2021/04/20 16:18:34;;;;;;;4.33;2.97;;;;;;;15.33;44.42;98335.63;239316;1199;23116;-78
2021/04/20 16:23:37;;;;;;;4.60;3.90;;;;;;;15.31;44.15;98337.08;239534;1196;23115;-78
2021/04/20 16:28:43;;;;;;;5.75;4.55;;;;;;;15.30;45.49;98351.68;239681;1195;23181;-78
2021/04/20 16:33:53;;;;;;;6.90;6.00;;;;;;;15.09;47.34;98351.68;239939;1198;27323;-77
2021/04/20 16:39:38;;;;;;;6.90;5.80;;;;;;;14.70;49.13;98338.27;239414;1196;23115;-78
2021/04/20 16:44:59;;;;;;;7.30;5.70;;;;;;;14.30;50.18;98341.31;239785;1196;23114;-78
2021/04/20 16:50:08;;;;;;;6.40;5.75;;;;;;;14.03;51.43;98340.59;239528;1196;23142;-78
2021/04/20 16:55:24;;;;;;;7.05;5.60;;;;;;;13.84;51.83;98349.83;239516;1196;23110;-77
2021/04/20 17:00:47;;;;;;;8.50;7.33;;;;;;;13.61;52.38;98354.63;239378;1196;23113;-78
2021/04/20 17:06:09;;;;;;;7.70;6.15;;;;;;;13.38;53.09;98345.15;239661;1199;23135;-78
2021/04/20 17:11:25;;;;;;;10.33;6.60;;;;;;;13.11;53.41;98341.61;239449;1196;23118;-78
2021/04/20 17:17:06;;;;;;;7.35;5.95;;;;;;;12.87;53.72;98350.13;239313;1196;23127;-77
2021/04/20 17:22:30;;;;;;;8.20;6.60;;;;;;;12.58;54.05;98349.59;239617;1196;23260;-78
2021/04/20 17:28:06;;;;;;;7.93;6.80;;;;;;;12.33;54.94;98373.36;239389;1196;23122;-78
2021/04/20 17:33:21;;;;;;;8.10;7.25;;;;;;;12.07;55.36;98367.85;239694;1196;23215;-78
2021/04/20 17:38:46;;;;;;;9.50;6.90;;;;;;;11.85;56.17;98370.54;239844;1196;26268;-77
2021/04/20 17:44:26;;;;;;;9.00;6.60;;;;;;;11.59;56.64;98381.90;239904;1196;23118;-78
2021/04/20 17:49:55;;;;;;;10.90;7.70;;;;;;;11.38;57.24;98386.94;239448;1196;23234;-77
2021/04/20 17:55:27;;;;;;;10.80;7.95;;;;;;;11.21;57.89;98380.33;239430;1196;23111;-77
2021/04/20 18:00:56;;;;;;;9.80;7.87;;;;;;;11.03;58.50;98397.34;239546;1196;23114;-78
2021/04/20 18:06:45;;;;;;;8.60;6.75;;;;;;;10.85;59.33;98391.02;239607;1195;23176;-77
2021/04/20 18:12:46;;;;;;;9.93;7.30;;;;;;;10.68;60.41;98391.63;239215;1196;23288;-78
2021/04/20 18:18:12;;;;;;;10.50;8.00;;;;;;;10.50;60.84;98404.02;238803;1199;23263;-78
2021/04/20 18:23:33;;;;;;;10.95;8.95;;;;;;;10.33;61.28;98409.92;239567;1196;23134;-78
2021/04/20 18:28:48;;;;;;;13.95;9.05;;;;;;;10.18;61.64;98408.30;239763;1196;23138;-80
2021/04/20 18:34:15;;;;;;;12.50;9.05;;;;;;;10.03;62.26;98414.69;239972;1196;23279;-78
2021/04/20 18:39:31;;;;;;;15.47;9.13;;;;;;;9.92;63.07;98412.20;239622;1196;23129;-77
2021/04/20 18:44:45;;;;;;;14.70;9.30;;;;;;;9.86;62.86;98412.56;239595;1196;23346;-77
2021/04/20 18:50:12;;;;;;;14.35;10.35;;;;;;;9.78;63.37;98426.59;239652;1196;23111;-77
2021/04/20 18:55:33;;;;;;;19.97;10.97;;;;;;;9.68;63.65;98430.22;239334;1196;23109;-77
2021/04/20 19:00:40;;;;;;;20.40;12.67;;;;;;;9.62;64.08;98436.74;239423;1196;26325;-77
2021/04/20 19:06:08;;;;;;;12.63;9.53;;;;;;;9.62;64.44;98439.41;239703;1196;23123;-78
2021/04/20 19:11:30;;;;;;;14.70;11.10;;;;;;;9.67;64.47;98445.48;239489;1196;23361;-77
2021/04/20 19:17:17;;;;;;;18.35;11.65;;;;;;;9.74;64.69;98445.91;239767;1199;23115;-78
2021/04/20 19:22:36;;;;;;;16.20;11.20;;;;;;;9.75;64.51;98439.48;239593;1196;23118;-77
2021/04/20 19:27:56;;;;;;;17.50;11.87;;;;;;;9.74;64.65;98448.58;239557;1196;23247;-77
2021/04/20 19:33:04;;;;;;;19.28;12.63;;;;;;;9.72;64.62;98453.44;239331;1196;23128;-78
2021/04/20 19:38:21;;;;;;;22.87;14.03;;;;;;;9.67;64.91;98450.83;239461;1196;27554;-78
2021/04/20 19:43:46;;;;;;;18.80;13.00;;;;;;;9.64;64.87;98446.07;239703;1199;23131;-77
2021/04/20 19:49:09;;;;;;;22.45;14.70;;;;;;;9.59;65.17;98449.59;239700;1196;23142;-77
2021/04/20 19:54:14;;;;;;;24.00;15.47;;;;;;;9.47;65.64;98456.46;239643;1196;23112;-78
2021/04/20 19:59:26;;;;;;;27.07;16.70;;;;;;;9.33;65.91;98454.52;239532;1196;23119;-77
2021/04/20 20:05:02;;;;;;;24.10;15.00;;;;;;;9.18;66.11;98457.39;239297;1196;23127;-77
2021/04/20 20:10:11;;;;;;;22.05;13.90;;;;;;;9.05;66.07;98459.67;239243;1197;23110;-78
2021/04/20 20:15:17;;;;;;;20.53;13.13;;;;;;;8.95;66.92;98457.10;239505;1195;23125;-77
2021/04/20 20:20:30;;;;;;;17.90;12.23;;;;;;;8.85;67.24;98462.57;239753;1196;23132;-77
2021/04/20 20:25:38;;;;;;;16.25;11.70;;;;;;;8.71;67.22;98457.89;239430;1196;23144;-77
2021/04/20 20:31:00;;;;;;;18.65;12.35;;;;;;;8.58;67.28;98460.44;239587;1199;24552;-77
2021/04/20 20:36:09;;;;;;;21.97;13.53;;;;;;;8.49;68.21;98454.92;240029;1195;23428;-77
2021/04/20 20:41:13;;;;;;;21.30;14.40;;;;;;;8.46;68.29;98450.16;239536;1195;23109;-78
2021/04/20 20:46:31;;;;;;;20.65;13.95;;;;;;;8.40;68.85;98444.83;239635;1196;23118;-78
2021/04/20 20:51:36;;;;;;;21.63;13.27;;;;;;;8.29;68.84;98451.34;239669;1196;23230;-77
2021/04/20 20:56:42;;;;;;;22.40;15.70;;;;;;;8.10;69.18;98453.92;239257;1196;23112;-77
2021/04/20 21:01:52;;;;;;;22.83;15.40;;;;;;;7.96;69.50;98447.62;239328;1196;24054;-77
2021/04/20 21:06:59;;;;;;;31.80;18.35;;;;;;;7.83;70.00;98443.72;239543;1196;27721;-76
2021/04/20 21:12:29;;;;;;;31.10;19.75;;;;;;;7.76;69.91;98448.57;239275;1195;23385;-78
2021/04/20 21:17:44;;;;;;;37.50;22.30;;;;;;;7.69;70.16;98455.03;239551;1196;23226;-78
2021/04/20 21:22:51;;;;;;;32.35;19.20;;;;;;;7.63;70.40;98444.66;239461;1196;23103;-78
2021/04/20 21:27:53;;;;;;;28.93;17.17;;;;;;;7.52;70.99;98443.92;239309;1196;23131;-77
2021/04/20 21:32:57;;;;;;;26.60;17.23;;;;;;;7.43;71.13;98442.91;239420;1196;23137;-77
2021/04/20 21:38:21;;;;;;;26.65;17.00;;;;;;;7.32;71.52;98453.63;239563;1197;23280;-77
2021/04/20 21:43:23;;;;;;;25.15;15.90;;;;;;;7.26;71.54;98449.41;239192;1196;23133;-76
2021/04/20 21:48:28;;;;;;;24.50;15.75;;;;;;;7.26;71.92;98444.08;239473;1196;23121;-77
2021/04/20 21:53:43;;;;;;;24.40;16.20;;;;;;;7.29;72.15;98445.38;239439;1196;23255;-77
2021/04/20 21:58:47;;;;;;;22.80;15.27;;;;;;;7.32;72.73;98447.52;239089;1196;23188;-77
2021/04/20 22:03:54;;;;;;;22.87;14.70;;;;;;;7.31;72.79;98445.91;239323;1196;26009;-77
2021/04/20 22:09:08;;;;;;;22.10;14.70;;;;;;;7.24;72.87;98453.41;239560;1196;23108;-77
2021/04/20 22:14:12;;;;;;;25.20;16.73;;;;;;;7.17;72.88;98465.14;239227;1196;23121;-77
2021/04/20 22:19:15;;;;;;;26.37;16.07;;;;;;;7.15;72.99;98458.52;239424;1196;23114;-76
2021/04/20 22:24:22;;;;;;;31.05;18.30;;;;;;;7.08;72.94;98463.32;239548;1196;23264;-77
2021/04/20 22:29:27;;;;;;;37.20;25.05;;;;;;;6.97;73.27;98465.25;239724;1196;23122;-76
2021/04/20 22:34:33;;;;;;;32.00;19.80;;;;;;;6.92;73.70;98467.92;239303;1196;23176;-77
2021/04/20 22:39:45;;;;;;;34.55;22.00;;;;;;;6.84;74.70;98467.41;239248;1199;23118;-77
2021/04/20 22:44:51;;;;;;;33.40;22.70;;;;;;;6.85;74.34;98469.02;239483;1199;23129;-76
2021/04/20 22:50:14;;;;;;;31.67;21.93;;;;;;;6.90;74.78;98470.86;239309;1199;23307;-77
2021/04/20 22:55:34;;;;;;;31.90;19.90;;;;;;;6.93;74.39;98466.86;239453;1196;23221;-77
2021/04/20 23:00:40;;;;;;;36.93;23.60;;;;;;;6.88;75.00;98467.65;239624;1196;23321;-77
2021/04/20 23:05:49;;;;;;;34.87;22.17;;;;;;;6.81;75.06;98473.28;239465;1196;25685;-77
2021/04/20 23:11:00;;;;;;;42.33;27.08;;;;;;;6.73;75.09;98473.02;239555;1196;23112;-77
2021/04/20 23:16:06;;;;;;;37.23;24.40;;;;;;;6.73;74.96;98457.86;239284;1196;23104;-76
2021/04/20 23:21:11;;;;;;;36.35;23.15;;;;;;;6.65;75.54;98450.42;239422;1196;23100;-77
2021/04/20 23:26:19;;;;;;;37.77;24.53;;;;;;;6.47;75.34;98446.47;239218;1196;23167;-77
2021/04/20 23:31:45;;;;;;;35.50;23.00;;;;;;;6.36;76.50;98444.89;239206;1196;23205;-77
2021/04/20 23:36:48;;;;;;;38.20;24.90;;;;;;;6.27;76.56;98450.75;239631;1199;23128;-77
2021/04/20 23:41:52;;;;;;;36.35;23.40;;;;;;;6.32;76.66;98439.30;239684;1196;24599;-76
2021/04/20 23:46:58;;;;;;;36.37;23.50;;;;;;;6.38;76.98;98448.07;239476;1196;23125;-77
2021/04/20 23:52:04;;;;;;;33.10;20.80;;;;;;;6.40;76.71;98436.09;239334;1196;23564;-77
2021/04/20 23:57:11;;;;;;;30.87;21.47;;;;;;;6.42;77.04;98438.48;239193;1196;23116;-76
